sensor_id;sensor_type;location;lat;lon;timestamp;temperature;humidity
770;DHT22;368;48.698;9.116;2023-07-31T00:01:12;13.40;99.90
770;DHT22;368;48.698;9.116;2023-07-31T00:03:38;13.00;99.90
770;DHT22;368;48.698;9.116;2023-07-31T00:06:05;13.00;99.90
770;DHT22;368;48.698;9.116;2023-07-31T00:08:33;13.10;99.90
770;DHT22;368;48.698;9.116;2023-07-31T00:11:00;13.00;99.90
770;DHT22;368;48.698;9.116;2023-07-31T00:13:27;12.90;99.90
770;DHT22;368;48.698;9.116;2023-07-31T00:15:54;12.90;99.90
770;DHT22;368;48.698;9.116;2023-07-31T00:18:21;12.90;99.90
770;DHT22;368;48.698;9.116;2023-07-31T00:20:48;13.00;99.90
770;DHT22;368;48.698;9.116;2023-07-31T00:23:14;12.80;99.90
770;DHT22;368;48.698;9.116;2023-07-31T00:25:43;13.00;99.90
770;DHT22;368;48.698;9.116;2023-07-31T00:28:10;12.90;99.90
770;DHT22;368;48.698;9.116;2023-07-31T00:30:36;12.90;99.90
770;DHT22;368;48.698;9.116;2023-07-31T00:33:03;12.90;99.90
770;DHT22;368;48.698;9.116;2023-07-31T00:35:30;12.90;99.90
770;DHT22;368;48.698;9.116;2023-07-31T00:37:58;13.20;99.90
770;DHT22;368;48.698;9.116;2023-07-31T00:40:25;13.30;99.90
770;DHT22;368;48.698;9.116;2023-07-31T00:42:53;13.20;99.90
770;DHT22;368;48.698;9.116;2023-07-31T00:45:20;13.10;99.90
770;DHT22;368;48.698;9.116;2023-07-31T00:47:48;13.40;99.90
770;DHT22;368;48.698;9.116;2023-07-31T00:50:15;13.50;99.90
770;DHT22;368;48.698;9.116;2023-07-31T00:52:42;13.10;99.90
770;DHT22;368;48.698;9.116;2023-07-31T00:55:09;13.50;99.90
770;DHT22;368;48.698;9.116;2023-07-31T00:57:37;13.70;99.90
770;DHT22;368;48.698;9.116;2023-07-31T01:00:07;13.60;99.90
770;DHT22;368;48.698;9.116;2023-07-31T01:02:35;13.70;99.90
770;DHT22;368;48.698;9.116;2023-07-31T01:05:02;13.70;99.90
770;DHT22;368;48.698;9.116;2023-07-31T01:07:35;13.70;99.90
770;DHT22;368;48.698;9.116;2023-07-31T01:10:14;13.50;99.90
770;DHT22;368;48.698;9.116;2023-07-31T01:12:43;13.60;99.90
770;DHT22;368;48.698;9.116;2023-07-31T01:15:13;13.80;99.90
770;DHT22;368;48.698;9.116;2023-07-31T01:17:41;13.80;99.90
770;DHT22;368;48.698;9.116;2023-07-31T01:20:12;13.70;99.90
770;DHT22;368;48.698;9.116;2023-07-31T01:22:59;13.80;99.90
770;DHT22;368;48.698;9.116;2023-07-31T01:25:58;13.60;99.90
770;DHT22;368;48.698;9.116;2023-07-31T01:28:31;13.30;99.90
770;DHT22;368;48.698;9.116;2023-07-31T01:31:00;13.40;99.90
770;DHT22;368;48.698;9.116;2023-07-31T01:33:29;13.20;99.90
770;DHT22;368;48.698;9.116;2023-07-31T01:35:57;13.10;99.90
770;DHT22;368;48.698;9.116;2023-07-31T01:38:24;12.80;99.90
770;DHT22;368;48.698;9.116;2023-07-31T01:40:52;12.80;99.90
770;DHT22;368;48.698;9.116;2023-07-31T01:43:19;12.80;99.90
770;DHT22;368;48.698;9.116;2023-07-31T01:45:46;12.80;99.90
770;DHT22;368;48.698;9.116;2023-07-31T01:48:13;12.90;99.90
770;DHT22;368;48.698;9.116;2023-07-31T01:50:40;13.00;99.90
770;DHT22;368;48.698;9.116;2023-07-31T01:53:07;13.00;99.90
770;DHT22;368;48.698;9.116;2023-07-31T01:55:34;13.10;99.90
770;DHT22;368;48.698;9.116;2023-07-31T01:58:02;13.20;99.90
770;DHT22;368;48.698;9.116;2023-07-31T02:00:28;13.30;99.90
770;DHT22;368;48.698;9.116;2023-07-31T02:02:55;13.50;99.90
770;DHT22;368;48.698;9.116;2023-07-31T02:05:22;13.40;99.90
770;DHT22;368;48.698;9.116;2023-07-31T02:07:49;13.40;99.90
770;DHT22;368;48.698;9.116;2023-07-31T02:10:16;13.30;99.90
770;DHT22;368;48.698;9.116;2023-07-31T02:12:42;13.30;99.90
770;DHT22;368;48.698;9.116;2023-07-31T02:15:11;13.10;99.90
770;DHT22;368;48.698;9.116;2023-07-31T02:17:38;13.00;99.90
770;DHT22;368;48.698;9.116;2023-07-31T02:20:05;13.20;99.90
770;DHT22;368;48.698;9.116;2023-07-31T02:22:32;13.20;99.90
770;DHT22;368;48.698;9.116;2023-07-31T02:24:59;13.20;99.90
770;DHT22;368;48.698;9.116;2023-07-31T02:27:26;13.00;99.90
770;DHT22;368;48.698;9.116;2023-07-31T02:29:53;13.00;99.90
770;DHT22;368;48.698;9.116;2023-07-31T02:32:21;12.90;99.90
770;DHT22;368;48.698;9.116;2023-07-31T02:34:48;13.00;99.90
770;DHT22;368;48.698;9.116;2023-07-31T02:37:15;13.10;99.90
770;DHT22;368;48.698;9.116;2023-07-31T02:39:42;12.90;99.90
770;DHT22;368;48.698;9.116;2023-07-31T02:42:09;12.80;99.90
770;DHT22;368;48.698;9.116;2023-07-31T02:44:35;12.80;99.90
770;DHT22;368;48.698;9.116;2023-07-31T02:47:03;12.90;99.90
770;DHT22;368;48.698;9.116;2023-07-31T02:49:31;12.70;99.90
770;DHT22;368;48.698;9.116;2023-07-31T02:51:58;12.60;99.90
770;DHT22;368;48.698;9.116;2023-07-31T02:54:24;12.50;99.90
770;DHT22;368;48.698;9.116;2023-07-31T02:56:51;12.70;99.90
770;DHT22;368;48.698;9.116;2023-07-31T02:59:18;12.70;99.90
770;DHT22;368;48.698;9.116;2023-07-31T03:01:45;12.80;99.90
770;DHT22;368;48.698;9.116;2023-07-31T03:04:12;12.90;99.90
770;DHT22;368;48.698;9.116;2023-07-31T03:06:40;12.70;99.90
770;DHT22;368;48.698;9.116;2023-07-31T03:09:07;12.70;99.90
770;DHT22;368;48.698;9.116;2023-07-31T03:11:33;13.10;99.90
770;DHT22;368;48.698;9.116;2023-07-31T03:14:00;13.10;99.90
770;DHT22;368;48.698;9.116;2023-07-31T03:16:27;13.20;99.90
770;DHT22;368;48.698;9.116;2023-07-31T03:18:54;13.10;99.90
770;DHT22;368;48.698;9.116;2023-07-31T03:21:21;13.00;99.90
770;DHT22;368;48.698;9.116;2023-07-31T03:23:49;13.20;99.90
770;DHT22;368;48.698;9.116;2023-07-31T03:26:16;13.00;99.90
770;DHT22;368;48.698;9.116;2023-07-31T03:28:42;13.10;99.90
770;DHT22;368;48.698;9.116;2023-07-31T03:31:09;13.00;99.90
770;DHT22;368;48.698;9.116;2023-07-31T03:33:37;13.10;99.90
770;DHT22;368;48.698;9.116;2023-07-31T03:36:04;13.20;99.90
770;DHT22;368;48.698;9.116;2023-07-31T03:38:31;13.20;99.90
770;DHT22;368;48.698;9.116;2023-07-31T03:40:59;13.20;99.90
770;DHT22;368;48.698;9.116;2023-07-31T03:43:26;13.30;99.90
770;DHT22;368;48.698;9.116;2023-07-31T03:45:53;13.20;99.90
770;DHT22;368;48.698;9.116;2023-07-31T03:48:20;13.50;99.90
770;DHT22;368;48.698;9.116;2023-07-31T03:50:46;13.30;99.90
770;DHT22;368;48.698;9.116;2023-07-31T03:53:13;13.10;99.90
770;DHT22;368;48.698;9.116;2023-07-31T03:55:40;13.40;99.90
770;DHT22;368;48.698;9.116;2023-07-31T03:58:08;13.40;99.90
770;DHT22;368;48.698;9.116;2023-07-31T04:00:35;13.40;99.90
770;DHT22;368;48.698;9.116;2023-07-31T04:03:01;13.60;99.90
770;DHT22;368;48.698;9.116;2023-07-31T04:05:30;13.70;99.90
770;DHT22;368;48.698;9.116;2023-07-31T04:07:56;13.40;99.90
770;DHT22;368;48.698;9.116;2023-07-31T04:10:23;13.80;99.90
770;DHT22;368;48.698;9.116;2023-07-31T04:12:50;13.50;99.90
770;DHT22;368;48.698;9.116;2023-07-31T04:15:18;13.90;99.90
770;DHT22;368;48.698;9.116;2023-07-31T04:17:45;13.60;99.90
770;DHT22;368;48.698;9.116;2023-07-31T04:20:12;13.80;99.90
770;DHT22;368;48.698;9.116;2023-07-31T04:22:38;14.10;99.90
770;DHT22;368;48.698;9.116;2023-07-31T04:25:06;14.20;99.90
770;DHT22;368;48.698;9.116;2023-07-31T04:27:32;14.20;99.90
770;DHT22;368;48.698;9.116;2023-07-31T04:29:59;14.50;99.90
770;DHT22;368;48.698;9.116;2023-07-31T04:32:27;14.60;99.90
770;DHT22;368;48.698;9.116;2023-07-31T04:34:55;14.70;99.90
770;DHT22;368;48.698;9.116;2023-07-31T04:37:22;14.80;99.90
770;DHT22;368;48.698;9.116;2023-07-31T04:39:48;14.70;99.90
770;DHT22;368;48.698;9.116;2023-07-31T04:42:15;14.80;99.90
770;DHT22;368;48.698;9.116;2023-07-31T04:44:42;14.60;99.90
770;DHT22;368;48.698;9.116;2023-07-31T04:47:09;14.90;99.90
770;DHT22;368;48.698;9.116;2023-07-31T04:49:37;15.00;99.90
770;DHT22;368;48.698;9.116;2023-07-31T04:52:04;14.90;99.90
770;DHT22;368;48.698;9.116;2023-07-31T04:54:31;14.90;99.90
770;DHT22;368;48.698;9.116;2023-07-31T04:56:58;14.90;99.90
770;DHT22;368;48.698;9.116;2023-07-31T04:59:25;14.80;99.90
770;DHT22;368;48.698;9.116;2023-07-31T05:01:51;15.10;99.90
770;DHT22;368;48.698;9.116;2023-07-31T05:04:18;15.20;99.90
770;DHT22;368;48.698;9.116;2023-07-31T05:06:46;15.10;99.90
770;DHT22;368;48.698;9.116;2023-07-31T05:09:13;15.00;99.90
770;DHT22;368;48.698;9.116;2023-07-31T05:11:40;15.10;99.90
770;DHT22;368;48.698;9.116;2023-07-31T05:14:08;15.10;99.90
770;DHT22;368;48.698;9.116;2023-07-31T05:16:35;15.30;99.90
770;DHT22;368;48.698;9.116;2023-07-31T05:19:02;15.00;99.90
770;DHT22;368;48.698;9.116;2023-07-31T05:21:29;15.10;99.90
770;DHT22;368;48.698;9.116;2023-07-31T05:23:57;15.30;99.90
770;DHT22;368;48.698;9.116;2023-07-31T05:26:23;15.30;99.90
770;DHT22;368;48.698;9.116;2023-07-31T05:28:50;15.40;99.90
770;DHT22;368;48.698;9.116;2023-07-31T05:31:17;15.40;99.90
770;DHT22;368;48.698;9.116;2023-07-31T05:33:44;15.50;99.90
770;DHT22;368;48.698;9.116;2023-07-31T05:36:11;15.70;99.90
770;DHT22;368;48.698;9.116;2023-07-31T05:38:37;15.70;99.90
770;DHT22;368;48.698;9.116;2023-07-31T05:41:05;15.80;99.90
770;DHT22;368;48.698;9.116;2023-07-31T05:43:32;15.90;99.90
770;DHT22;368;48.698;9.116;2023-07-31T05:45:59;16.10;99.90
770;DHT22;368;48.698;9.116;2023-07-31T05:48:26;16.30;99.90
770;DHT22;368;48.698;9.116;2023-07-31T05:50:53;16.40;99.90
770;DHT22;368;48.698;9.116;2023-07-31T05:53:20;16.50;99.90
770;DHT22;368;48.698;9.116;2023-07-31T05:55:47;16.60;99.90
770;DHT22;368;48.698;9.116;2023-07-31T05:58:15;16.60;99.90
770;DHT22;368;48.698;9.116;2023-07-31T06:00:42;16.50;99.90
770;DHT22;368;48.698;9.116;2023-07-31T06:03:09;16.60;99.90
770;DHT22;368;48.698;9.116;2023-07-31T06:05:34;16.70;99.90
770;DHT22;368;48.698;9.116;2023-07-31T06:08:01;16.90;99.90
770;DHT22;368;48.698;9.116;2023-07-31T06:10:28;17.00;99.90
770;DHT22;368;48.698;9.116;2023-07-31T06:12:55;17.10;99.90
770;DHT22;368;48.698;9.116;2023-07-31T06:15:24;17.10;99.90
770;DHT22;368;48.698;9.116;2023-07-31T06:17:51;17.20;99.90
770;DHT22;368;48.698;9.116;2023-07-31T06:20:17;17.30;99.90
770;DHT22;368;48.698;9.116;2023-07-31T06:22:44;17.30;99.90
770;DHT22;368;48.698;9.116;2023-07-31T06:25:11;17.50;99.90
770;DHT22;368;48.698;9.116;2023-07-31T06:27:38;17.90;99.90
770;DHT22;368;48.698;9.116;2023-07-31T06:30:06;17.90;99.90
770;DHT22;368;48.698;9.116;2023-07-31T06:32:34;17.80;99.90
770;DHT22;368;48.698;9.116;2023-07-31T06:35:01;18.00;99.90
770;DHT22;368;48.698;9.116;2023-07-31T06:37:28;18.10;99.90
770;DHT22;368;48.698;9.116;2023-07-31T06:39:55;18.00;99.90
770;DHT22;368;48.698;9.116;2023-07-31T06:42:22;18.00;99.90
770;DHT22;368;48.698;9.116;2023-07-31T06:44:49;18.80;99.90
770;DHT22;368;48.698;9.116;2023-07-31T06:47:16;19.40;99.90
770;DHT22;368;48.698;9.116;2023-07-31T06:49:44;19.50;99.50
770;DHT22;368;48.698;9.116;2023-07-31T06:52:11;19.40;99.60
770;DHT22;368;48.698;9.116;2023-07-31T06:54:38;19.80;99.20
770;DHT22;368;48.698;9.116;2023-07-31T06:57:05;20.30;98.20
770;DHT22;368;48.698;9.116;2023-07-31T06:59:32;20.40;98.30
770;DHT22;368;48.698;9.116;2023-07-31T07:01:58;20.40;97.00
770;DHT22;368;48.698;9.116;2023-07-31T07:04:25;19.90;97.60
770;DHT22;368;48.698;9.116;2023-07-31T07:06:53;19.60;98.10
770;DHT22;368;48.698;9.116;2023-07-31T07:09:20;19.60;98.00
770;DHT22;368;48.698;9.116;2023-07-31T07:11:47;19.80;97.80
770;DHT22;368;48.698;9.116;2023-07-31T07:14:14;19.90;97.20
770;DHT22;368;48.698;9.116;2023-07-31T07:16:41;19.90;97.50
770;DHT22;368;48.698;9.116;2023-07-31T07:19:08;19.80;97.70
770;DHT22;368;48.698;9.116;2023-07-31T07:21:34;19.90;97.60
770;DHT22;368;48.698;9.116;2023-07-31T07:24:03;19.70;97.40
770;DHT22;368;48.698;9.116;2023-07-31T07:26:30;19.50;97.70
770;DHT22;368;48.698;9.116;2023-07-31T07:28:57;19.30;98.10
770;DHT22;368;48.698;9.116;2023-07-31T07:31:23;19.30;97.70
770;DHT22;368;48.698;9.116;2023-07-31T07:33:50;19.30;97.40
770;DHT22;368;48.698;9.116;2023-07-31T07:36:17;19.50;97.70
770;DHT22;368;48.698;9.116;2023-07-31T07:38:44;19.30;98.00
770;DHT22;368;48.698;9.116;2023-07-31T07:41:12;19.20;98.40
770;DHT22;368;48.698;9.116;2023-07-31T07:43:39;19.20;98.20
770;DHT22;368;48.698;9.116;2023-07-31T07:46:05;19.60;98.00
770;DHT22;368;48.698;9.116;2023-07-31T07:48:32;20.10;97.70
770;DHT22;368;48.698;9.116;2023-07-31T07:50:59;20.20;96.70
770;DHT22;368;48.698;9.116;2023-07-31T07:53:26;20.90;96.20
770;DHT22;368;48.698;9.116;2023-07-31T07:55:52;21.00;95.30
770;DHT22;368;48.698;9.116;2023-07-31T07:58:21;21.40;95.60
770;DHT22;368;48.698;9.116;2023-07-31T08:00:51;22.30;94.00
770;DHT22;368;48.698;9.116;2023-07-31T08:03:18;22.30;93.00
770;DHT22;368;48.698;9.116;2023-07-31T08:05:45;22.50;92.90
770;DHT22;368;48.698;9.116;2023-07-31T08:08:14;22.50;92.80
770;DHT22;368;48.698;9.116;2023-07-31T08:10:41;22.80;92.10
770;DHT22;368;48.698;9.116;2023-07-31T08:13:09;22.80;91.70
770;DHT22;368;48.698;9.116;2023-07-31T08:15:38;23.40;91.60
770;DHT22;368;48.698;9.116;2023-07-31T08:18:07;23.50;91.70
770;DHT22;368;48.698;9.116;2023-07-31T08:20:34;23.60;90.70
770;DHT22;368;48.698;9.116;2023-07-31T08:23:01;23.30;90.30
770;DHT22;368;48.698;9.116;2023-07-31T08:25:28;23.10;90.40
770;DHT22;368;48.698;9.116;2023-07-31T08:27:55;22.90;90.10
770;DHT22;368;48.698;9.116;2023-07-31T08:30:22;23.40;89.60
770;DHT22;368;48.698;9.116;2023-07-31T08:32:50;23.80;88.80
770;DHT22;368;48.698;9.116;2023-07-31T08:35:17;24.60;87.40
770;DHT22;368;48.698;9.116;2023-07-31T08:37:44;24.60;86.00
770;DHT22;368;48.698;9.116;2023-07-31T08:40:11;24.50;85.20
770;DHT22;368;48.698;9.116;2023-07-31T08:42:43;24.20;85.20
770;DHT22;368;48.698;9.116;2023-07-31T08:45:13;24.70;85.50
770;DHT22;368;48.698;9.116;2023-07-31T08:47:42;24.90;84.80
770;DHT22;368;48.698;9.116;2023-07-31T08:50:11;25.50;83.30
770;DHT22;368;48.698;9.116;2023-07-31T08:52:39;25.40;80.70
770;DHT22;368;48.698;9.116;2023-07-31T08:55:07;24.40;81.80
770;DHT22;368;48.698;9.116;2023-07-31T08:57:35;23.60;86.00
770;DHT22;368;48.698;9.116;2023-07-31T09:00:03;23.70;85.70
770;DHT22;368;48.698;9.116;2023-07-31T09:02:38;23.90;84.90
770;DHT22;368;48.698;9.116;2023-07-31T09:05:09;23.30;85.90
770;DHT22;368;48.698;9.116;2023-07-31T09:07:37;22.60;87.20
770;DHT22;368;48.698;9.116;2023-07-31T09:10:05;22.80;87.90
770;DHT22;368;48.698;9.116;2023-07-31T09:12:32;24.30;85.90
770;DHT22;368;48.698;9.116;2023-07-31T09:15:00;24.30;84.70
770;DHT22;368;48.698;9.116;2023-07-31T09:17:30;23.70;85.50
770;DHT22;368;48.698;9.116;2023-07-31T09:19:58;22.90;88.00
770;DHT22;368;48.698;9.116;2023-07-31T09:22:40;22.80;89.50
770;DHT22;368;48.698;9.116;2023-07-31T09:25:14;22.40;89.60
770;DHT22;368;48.698;9.116;2023-07-31T09:27:49;21.90;90.40
770;DHT22;368;48.698;9.116;2023-07-31T09:30:17;21.90;91.00
770;DHT22;368;48.698;9.116;2023-07-31T09:32:45;21.50;90.70
770;DHT22;368;48.698;9.116;2023-07-31T09:35:20;21.40;91.60
770;DHT22;368;48.698;9.116;2023-07-31T09:37:52;21.40;91.40
770;DHT22;368;48.698;9.116;2023-07-31T09:40:27;21.20;91.30
770;DHT22;368;48.698;9.116;2023-07-31T09:42:56;21.00;91.90
770;DHT22;368;48.698;9.116;2023-07-31T09:45:24;21.20;92.20
770;DHT22;368;48.698;9.116;2023-07-31T09:47:51;21.40;91.70
770;DHT22;368;48.698;9.116;2023-07-31T09:50:19;21.80;91.60
770;DHT22;368;48.698;9.116;2023-07-31T09:52:46;22.80;90.30
770;DHT22;368;48.698;9.116;2023-07-31T09:55:14;24.30;88.20
770;DHT22;368;48.698;9.116;2023-07-31T09:57:45;25.00;84.10
770;DHT22;368;48.698;9.116;2023-07-31T10:00:13;25.70;81.10
770;DHT22;368;48.698;9.116;2023-07-31T10:02:40;24.60;83.60
770;DHT22;368;48.698;9.116;2023-07-31T10:05:08;24.10;84.70
770;DHT22;368;48.698;9.116;2023-07-31T10:07:37;24.40;83.00
770;DHT22;368;48.698;9.116;2023-07-31T10:10:07;25.00;82.00
770;DHT22;368;48.698;9.116;2023-07-31T10:12:36;25.00;82.00
770;DHT22;368;48.698;9.116;2023-07-31T10:15:05;25.60;80.60
770;DHT22;368;48.698;9.116;2023-07-31T10:17:33;25.90;78.40
770;DHT22;368;48.698;9.116;2023-07-31T10:20:02;26.10;78.50
770;DHT22;368;48.698;9.116;2023-07-31T10:22:30;26.10;77.80
770;DHT22;368;48.698;9.116;2023-07-31T10:24:58;26.20;78.60
770;DHT22;368;48.698;9.116;2023-07-31T10:27:25;26.70;78.30
770;DHT22;368;48.698;9.116;2023-07-31T10:29:55;27.00;75.60
770;DHT22;368;48.698;9.116;2023-07-31T10:32:23;25.50;78.20
770;DHT22;368;48.698;9.116;2023-07-31T10:34:51;26.60;77.00
770;DHT22;368;48.698;9.116;2023-07-31T10:37:23;27.70;73.40
770;DHT22;368;48.698;9.116;2023-07-31T10:39:58;27.70;70.10
770;DHT22;368;48.698;9.116;2023-07-31T10:42:33;27.30;70.50
770;DHT22;368;48.698;9.116;2023-07-31T10:45:03;27.20;72.70
770;DHT22;368;48.698;9.116;2023-07-31T10:47:30;27.60;71.90
770;DHT22;368;48.698;9.116;2023-07-31T10:50:27;27.10;70.60
770;DHT22;368;48.698;9.116;2023-07-31T10:52:56;27.40;70.50
770;DHT22;368;48.698;9.116;2023-07-31T10:55:28;27.80;69.00
770;DHT22;368;48.698;9.116;2023-07-31T10:57:57;27.70;69.30
770;DHT22;368;48.698;9.116;2023-07-31T11:00:28;27.30;70.30
770;DHT22;368;48.698;9.116;2023-07-31T11:03:00;26.40;72.50
770;DHT22;368;48.698;9.116;2023-07-31T11:05:49;25.00;74.70
770;DHT22;368;48.698;9.116;2023-07-31T11:08:18;24.60;77.60
770;DHT22;368;48.698;9.116;2023-07-31T11:10:47;24.60;78.40
770;DHT22;368;48.698;9.116;2023-07-31T11:13:14;24.50;79.60
770;DHT22;368;48.698;9.116;2023-07-31T11:15:42;24.20;78.50
770;DHT22;368;48.698;9.116;2023-07-31T11:18:09;24.00;78.90
770;DHT22;368;48.698;9.116;2023-07-31T11:20:37;23.50;80.40
770;DHT22;368;48.698;9.116;2023-07-31T11:23:07;23.40;82.10
770;DHT22;368;48.698;9.116;2023-07-31T11:25:35;23.30;82.60
770;DHT22;368;48.698;9.116;2023-07-31T11:28:04;23.40;83.00
770;DHT22;368;48.698;9.116;2023-07-31T11:30:30;23.10;82.70
770;DHT22;368;48.698;9.116;2023-07-31T11:33:00;23.20;83.10
770;DHT22;368;48.698;9.116;2023-07-31T11:35:28;23.30;83.50
770;DHT22;368;48.698;9.116;2023-07-31T11:37:55;23.30;83.40
770;DHT22;368;48.698;9.116;2023-07-31T11:40:22;23.30;83.30
770;DHT22;368;48.698;9.116;2023-07-31T11:42:54;23.50;83.00
770;DHT22;368;48.698;9.116;2023-07-31T11:45:21;23.50;83.00
770;DHT22;368;48.698;9.116;2023-07-31T11:47:50;23.50;84.80
770;DHT22;368;48.698;9.116;2023-07-31T11:50:19;23.40;84.40
770;DHT22;368;48.698;9.116;2023-07-31T11:52:46;23.20;84.50
770;DHT22;368;48.698;9.116;2023-07-31T11:55:16;22.80;86.10
770;DHT22;368;48.698;9.116;2023-07-31T11:57:44;22.70;86.80
770;DHT22;368;48.698;9.116;2023-07-31T12:00:13;22.70;86.60
770;DHT22;368;48.698;9.116;2023-07-31T12:02:40;22.60;86.00
770;DHT22;368;48.698;9.116;2023-07-31T12:05:10;22.80;86.80
770;DHT22;368;48.698;9.116;2023-07-31T12:07:50;22.90;86.80
770;DHT22;368;48.698;9.116;2023-07-31T12:10:24;22.70;85.60
770;DHT22;368;48.698;9.116;2023-07-31T12:13:04;22.40;87.60
770;DHT22;368;48.698;9.116;2023-07-31T12:15:39;22.70;88.60
770;DHT22;368;48.698;9.116;2023-07-31T12:18:08;23.00;87.80
770;DHT22;368;48.698;9.116;2023-07-31T12:20:35;23.20;86.70
770;DHT22;368;48.698;9.116;2023-07-31T12:23:13;22.70;86.80
770;DHT22;368;48.698;9.116;2023-07-31T12:25:40;22.50;86.90
770;DHT22;368;48.698;9.116;2023-07-31T12:28:07;22.30;87.30
770;DHT22;368;48.698;9.116;2023-07-31T12:30:38;22.20;89.20
770;DHT22;368;48.698;9.116;2023-07-31T12:33:06;22.30;89.80
770;DHT22;368;48.698;9.116;2023-07-31T12:35:38;22.30;89.20
770;DHT22;368;48.698;9.116;2023-07-31T12:38:05;22.40;89.10
770;DHT22;368;48.698;9.116;2023-07-31T12:40:33;22.50;89.90
770;DHT22;368;48.698;9.116;2023-07-31T12:43:02;22.60;88.70
770;DHT22;368;48.698;9.116;2023-07-31T12:45:30;22.70;89.20
770;DHT22;368;48.698;9.116;2023-07-31T12:47:57;22.70;88.10
770;DHT22;368;48.698;9.116;2023-07-31T12:50:24;23.00;89.80
770;DHT22;368;48.698;9.116;2023-07-31T12:52:51;23.30;87.80
770;DHT22;368;48.698;9.116;2023-07-31T12:55:18;23.30;86.70
770;DHT22;368;48.698;9.116;2023-07-31T12:57:46;23.50;85.60
770;DHT22;368;48.698;9.116;2023-07-31T13:00:13;23.80;87.90
770;DHT22;368;48.698;9.116;2023-07-31T13:02:40;24.80;84.40
770;DHT22;368;48.698;9.116;2023-07-31T13:05:07;25.30;81.30
770;DHT22;368;48.698;9.116;2023-07-31T13:07:34;25.40;81.80
770;DHT22;368;48.698;9.116;2023-07-31T13:10:01;25.60;82.60
770;DHT22;368;48.698;9.116;2023-07-31T13:12:28;26.60;79.30
770;DHT22;368;48.698;9.116;2023-07-31T13:14:56;26.90;77.40
770;DHT22;368;48.698;9.116;2023-07-31T13:17:23;26.00;77.20
770;DHT22;368;48.698;9.116;2023-07-31T13:19:50;26.20;80.10
770;DHT22;368;48.698;9.116;2023-07-31T13:22:16;25.80;79.70
770;DHT22;368;48.698;9.116;2023-07-31T13:24:43;25.20;80.90
770;DHT22;368;48.698;9.116;2023-07-31T13:27:10;25.10;80.90
770;DHT22;368;48.698;9.116;2023-07-31T13:29:37;24.80;83.30
770;DHT22;368;48.698;9.116;2023-07-31T13:32:05;24.90;83.70
770;DHT22;368;48.698;9.116;2023-07-31T13:34:32;24.90;82.10
770;DHT22;368;48.698;9.116;2023-07-31T13:36:59;24.50;84.10
770;DHT22;368;48.698;9.116;2023-07-31T13:39:26;24.30;83.30
770;DHT22;368;48.698;9.116;2023-07-31T13:41:52;24.10;84.90
770;DHT22;368;48.698;9.116;2023-07-31T13:44:20;24.00;85.50
770;DHT22;368;48.698;9.116;2023-07-31T13:46:47;24.10;85.80
770;DHT22;368;48.698;9.116;2023-07-31T13:49:15;24.50;85.10
770;DHT22;368;48.698;9.116;2023-07-31T13:51:42;24.50;84.40
770;DHT22;368;48.698;9.116;2023-07-31T13:54:08;24.20;85.70
770;DHT22;368;48.698;9.116;2023-07-31T13:56:37;24.30;85.10
770;DHT22;368;48.698;9.116;2023-07-31T13:59:04;24.50;85.30
770;DHT22;368;48.698;9.116;2023-07-31T14:01:30;24.80;85.50
770;DHT22;368;48.698;9.116;2023-07-31T14:03:57;24.60;84.90
770;DHT22;368;48.698;9.116;2023-07-31T14:06:25;24.50;85.30
770;DHT22;368;48.698;9.116;2023-07-31T14:08:52;24.30;86.10
770;DHT22;368;48.698;9.116;2023-07-31T14:11:19;24.30;85.50
770;DHT22;368;48.698;9.116;2023-07-31T14:13:46;24.00;87.00
770;DHT22;368;48.698;9.116;2023-07-31T14:16:13;24.00;87.10
770;DHT22;368;48.698;9.116;2023-07-31T14:18:39;24.00;88.20
770;DHT22;368;48.698;9.116;2023-07-31T14:21:06;23.70;87.20
770;DHT22;368;48.698;9.116;2023-07-31T14:23:34;23.60;87.20
770;DHT22;368;48.698;9.116;2023-07-31T14:26:01;23.50;86.10
770;DHT22;368;48.698;9.116;2023-07-31T14:28:28;23.30;85.90
770;DHT22;368;48.698;9.116;2023-07-31T14:30:55;23.30;85.50
770;DHT22;368;48.698;9.116;2023-07-31T14:33:22;23.20;86.80
770;DHT22;368;48.698;9.116;2023-07-31T14:35:49;23.10;86.20
770;DHT22;368;48.698;9.116;2023-07-31T14:38:15;22.90;85.80
770;DHT22;368;48.698;9.116;2023-07-31T14:40:44;22.80;85.70
770;DHT22;368;48.698;9.116;2023-07-31T14:43:10;23.00;85.90
770;DHT22;368;48.698;9.116;2023-07-31T14:45:37;23.20;85.10
770;DHT22;368;48.698;9.116;2023-07-31T14:48:04;23.50;85.70
770;DHT22;368;48.698;9.116;2023-07-31T14:50:31;23.80;83.80
770;DHT22;368;48.698;9.116;2023-07-31T14:52:58;24.00;83.70
770;DHT22;368;48.698;9.116;2023-07-31T14:55:25;24.00;82.30
770;DHT22;368;48.698;9.116;2023-07-31T14:57:53;23.90;82.50
770;DHT22;368;48.698;9.116;2023-07-31T15:00:20;23.90;83.00
770;DHT22;368;48.698;9.116;2023-07-31T15:02:47;24.00;82.40
770;DHT22;368;48.698;9.116;2023-07-31T15:05:14;23.80;82.70
770;DHT22;368;48.698;9.116;2023-07-31T15:07:41;23.70;82.30
770;DHT22;368;48.698;9.116;2023-07-31T15:10:08;23.70;83.50
770;DHT22;368;48.698;9.116;2023-07-31T15:12:35;23.80;82.80
770;DHT22;368;48.698;9.116;2023-07-31T15:15:05;23.80;82.50
770;DHT22;368;48.698;9.116;2023-07-31T15:17:32;23.60;82.80
770;DHT22;368;48.698;9.116;2023-07-31T15:19:59;23.60;83.00
770;DHT22;368;48.698;9.116;2023-07-31T15:22:26;23.60;84.00
770;DHT22;368;48.698;9.116;2023-07-31T15:24:54;23.80;84.00
770;DHT22;368;48.698;9.116;2023-07-31T15:27:20;24.00;83.30
770;DHT22;368;48.698;9.116;2023-07-31T15:29:47;24.40;82.40
770;DHT22;368;48.698;9.116;2023-07-31T15:32:17;24.40;82.60
770;DHT22;368;48.698;9.116;2023-07-31T15:34:44;24.50;83.00
770;DHT22;368;48.698;9.116;2023-07-31T15:37:11;24.20;83.40
770;DHT22;368;48.698;9.116;2023-07-31T15:39:38;24.20;84.00
770;DHT22;368;48.698;9.116;2023-07-31T15:42:05;24.20;85.00
770;DHT22;368;48.698;9.116;2023-07-31T15:44:34;24.20;84.50
770;DHT22;368;48.698;9.116;2023-07-31T15:47:01;24.20;84.60
770;DHT22;368;48.698;9.116;2023-07-31T15:49:29;24.00;84.80
770;DHT22;368;48.698;9.116;2023-07-31T15:51:56;24.00;85.00
770;DHT22;368;48.698;9.116;2023-07-31T15:54:23;23.90;85.00
770;DHT22;368;48.698;9.116;2023-07-31T15:56:50;23.80;85.00
770;DHT22;368;48.698;9.116;2023-07-31T15:59:17;23.60;85.80
770;DHT22;368;48.698;9.116;2023-07-31T16:01:44;23.50;87.30
770;DHT22;368;48.698;9.116;2023-07-31T16:04:10;23.70;87.50
770;DHT22;368;48.698;9.116;2023-07-31T16:06:38;23.80;87.30
770;DHT22;368;48.698;9.116;2023-07-31T16:09:05;24.00;87.60
770;DHT22;368;48.698;9.116;2023-07-31T16:11:32;23.90;87.30
770;DHT22;368;48.698;9.116;2023-07-31T16:13:59;24.00;87.50
770;DHT22;368;48.698;9.116;2023-07-31T16:16:27;24.00;86.70
770;DHT22;368;48.698;9.116;2023-07-31T16:18:54;23.70;85.80
770;DHT22;368;48.698;9.116;2023-07-31T16:21:21;23.60;84.40
770;DHT22;368;48.698;9.116;2023-07-31T16:23:49;23.50;85.20
770;DHT22;368;48.698;9.116;2023-07-31T16:26:16;23.30;85.40
770;DHT22;368;48.698;9.116;2023-07-31T16:28:42;23.20;85.60
770;DHT22;368;48.698;9.116;2023-07-31T16:31:09;23.10;85.60
770;DHT22;368;48.698;9.116;2023-07-31T16:33:36;22.90;86.80
770;DHT22;368;48.698;9.116;2023-07-31T16:36:03;23.00;86.40
770;DHT22;368;48.698;9.116;2023-07-31T16:38:30;22.90;88.00